createdAt,value
2018-06-22T00:02:13.089Z,3.30
2018-06-22T00:04:42.613Z,3.33
2018-06-22T00:07:11.855Z,3.07
2018-06-22T00:09:41.189Z,2.70
2018-06-22T00:12:10.541Z,3.20
2018-06-22T00:14:39.843Z,3.30
2018-06-22T00:17:09.141Z,3.50
2018-06-22T00:19:38.549Z,3.00
2018-06-22T00:22:07.800Z,2.37
2018-06-22T00:24:37.008Z,2.87
2018-06-22T00:27:06.356Z,3.10
2018-06-22T00:29:35.564Z,3.10
2018-06-22T00:32:04.865Z,4.30
2018-06-22T00:34:34.175Z,2.83
2018-06-22T00:37:03.469Z,3.40
2018-06-22T00:39:32.832Z,2.23
2018-06-22T00:42:02.137Z,3.13
2018-06-22T00:44:31.377Z,2.93
2018-06-22T00:47:00.624Z,3.33
2018-06-22T00:49:29.960Z,3.60
2018-06-22T00:51:59.291Z,3.10
2018-06-22T00:54:28.642Z,3.40
2018-06-22T00:56:57.870Z,5.50
2018-06-22T00:59:27.157Z,3.63
2018-06-22T01:01:56.424Z,4.07
2018-06-22T01:04:25.766Z,3.73
2018-06-22T01:06:55.147Z,3.43
2018-06-22T01:09:24.344Z,3.20
2018-06-22T01:11:53.621Z,3.37
2018-06-22T01:14:22.961Z,4.10
2018-06-22T01:16:52.262Z,3.50
2018-06-22T01:19:21.633Z,4.13
2018-06-22T01:21:50.981Z,3.70
2018-06-22T01:24:20.334Z,4.17
2018-06-22T01:26:49.557Z,4.40
2018-06-22T01:29:24.093Z,4.23
2018-06-22T01:31:53.453Z,4.60
2018-06-22T01:34:22.734Z,4.53
2018-06-22T01:36:52.153Z,4.23
2018-06-22T01:39:21.424Z,4.57
2018-06-22T01:41:50.910Z,3.40
2018-06-22T01:44:20.190Z,4.60
2018-06-22T01:46:49.398Z,4.37
2018-06-22T01:49:18.742Z,4.20
2018-06-22T01:51:47.981Z,4.67
2018-06-22T01:54:17.292Z,4.50
2018-06-22T01:56:46.619Z,5.13
2018-06-22T01:59:15.957Z,4.93
2018-06-22T02:01:46.321Z,5.47
2018-06-22T02:04:15.650Z,5.40
2018-06-22T02:06:45.000Z,5.80
2018-06-22T02:09:14.482Z,5.10
2018-06-22T02:11:43.769Z,5.43
2018-06-22T02:14:13.029Z,4.90
2018-06-22T02:16:42.329Z,5.37
2018-06-22T02:19:11.620Z,4.37
2018-06-22T02:21:40.761Z,4.30
2018-06-22T02:24:09.893Z,5.00
2018-06-22T02:26:39.322Z,5.03
2018-06-22T02:29:08.578Z,5.53
2018-06-22T02:31:38.558Z,6.40
2018-06-22T02:34:07.996Z,6.87
2018-06-22T02:36:37.368Z,6.00
2018-06-22T02:39:09.117Z,5.70
2018-06-22T02:41:38.444Z,5.60
2018-06-22T02:44:07.798Z,6.03
2018-06-22T02:46:37.108Z,6.00
2018-06-22T02:49:06.382Z,7.67
2018-06-22T02:51:35.787Z,6.83
2018-06-22T02:54:05.099Z,6.60
2018-06-22T02:56:34.455Z,7.27
2018-06-22T02:59:03.745Z,6.80
2018-06-22T03:01:33.545Z,6.30
2018-06-22T03:04:02.767Z,7.93
2018-06-22T03:06:32.127Z,6.80
2018-06-22T03:09:01.570Z,7.70
2018-06-22T03:11:30.937Z,6.20
2018-06-22T03:14:00.328Z,7.27
2018-06-22T03:16:29.576Z,7.40
2018-06-22T03:18:58.970Z,6.90
2018-06-22T03:21:28.222Z,7.20
2018-06-22T03:23:57.452Z,7.20
2018-06-22T03:26:26.661Z,7.70
2018-06-22T03:28:55.886Z,8.03
2018-06-22T03:31:25.160Z,8.80
2018-06-22T03:33:54.381Z,7.97
2018-06-22T03:36:23.668Z,9.50
2018-06-22T03:38:52.921Z,9.97
2018-06-22T03:41:22.199Z,9.70
2018-06-22T03:43:51.479Z,10.93
2018-06-22T03:46:20.754Z,9.37
2018-06-22T03:48:50.041Z,10.37
2018-06-22T03:51:19.291Z,9.20
2018-06-22T03:53:48.610Z,10.47
2018-06-22T03:56:18.021Z,10.43
2018-06-22T03:58:47.371Z,9.40
2018-06-22T04:01:16.603Z,9.30
2018-06-22T04:03:45.954Z,9.60
2018-06-22T04:06:15.293Z,9.23
2018-06-22T04:08:44.550Z,9.80
2018-06-22T04:11:13.877Z,9.80
2018-06-22T04:13:43.157Z,8.90
2018-06-22T04:16:12.477Z,8.43
2018-06-22T04:18:41.748Z,8.90
2018-06-22T04:21:10.996Z,9.27
2018-06-22T04:23:40.459Z,7.63
2018-06-22T04:26:09.685Z,8.40
2018-06-22T04:28:39.010Z,7.60
2018-06-22T04:31:08.607Z,8.40
2018-06-22T04:33:38.129Z,7.70
2018-06-22T04:36:07.514Z,6.50
2018-06-22T04:38:36.932Z,7.23
2018-06-22T04:41:06.579Z,6.73
2018-06-22T04:43:35.902Z,7.30
2018-06-22T04:46:05.407Z,7.80
2018-06-22T04:48:34.725Z,6.90
2018-06-22T04:51:04.063Z,8.53
2018-06-22T04:53:33.383Z,10.63
2018-06-22T04:56:02.695Z,8.93
2018-06-22T04:58:32.131Z,9.80
2018-06-22T05:01:01.637Z,11.30
2018-06-22T05:03:31.087Z,11.37
2018-06-22T05:06:00.382Z,13.73
2018-06-22T05:08:29.825Z,14.20
2018-06-22T05:10:59.152Z,15.03
2018-06-22T05:13:28.541Z,15.23
2018-06-22T05:15:57.929Z,15.63
2018-06-22T05:18:27.265Z,14.90
2018-06-22T05:20:56.705Z,12.70
2018-06-22T05:23:25.985Z,10.43
2018-06-22T05:25:55.470Z,11.50
2018-06-22T05:28:24.889Z,9.87
2018-06-22T05:30:54.219Z,9.63
2018-06-22T05:33:27.573Z,9.83
2018-06-22T05:35:57.438Z,10.60
2018-06-22T05:38:26.824Z,8.60
2018-06-22T05:40:56.174Z,8.07
2018-06-22T05:43:25.507Z,7.10
2018-06-22T05:45:54.982Z,7.30
2018-06-22T05:48:24.433Z,7.00
2018-06-22T05:50:53.830Z,5.83
2018-06-22T05:53:23.246Z,6.17
2018-06-22T05:55:52.633Z,6.00
2018-06-22T05:58:22.081Z,6.97
2018-06-22T06:00:52.336Z,5.67
2018-06-22T06:03:21.951Z,6.90
2018-06-22T06:05:51.301Z,6.30
2018-06-22T06:08:20.706Z,6.73
2018-06-22T06:10:50.127Z,6.67
2018-06-22T06:13:19.449Z,6.60
2018-06-22T06:15:48.854Z,4.70
2018-06-22T06:18:18.182Z,5.43
2018-06-22T06:20:47.734Z,5.90
2018-06-22T06:23:38.962Z,5.90
2018-06-22T06:26:08.289Z,6.10
2018-06-22T06:28:37.582Z,6.37
2018-06-22T06:31:07.034Z,4.53
2018-06-22T06:33:36.447Z,5.47
2018-06-22T06:36:05.751Z,5.80
2018-06-22T06:38:35.125Z,5.90
2018-06-22T06:41:05.316Z,4.00
2018-06-22T06:43:34.737Z,4.63
2018-06-22T06:46:04.062Z,4.63
2018-06-22T06:48:33.431Z,4.27
2018-06-22T06:51:02.694Z,3.83
2018-06-22T06:53:32.139Z,4.10
2018-06-22T06:56:02.280Z,4.80
2018-06-22T06:58:31.688Z,4.60
2018-06-22T07:01:01.211Z,5.60
2018-06-22T07:03:30.580Z,5.20
2018-06-22T07:06:00.002Z,3.80
2018-06-22T07:08:29.391Z,3.40
2018-06-22T07:10:58.732Z,4.30
2018-06-22T07:13:28.218Z,3.67
2018-06-22T07:15:57.657Z,4.53
2018-06-22T07:18:27.053Z,5.70
2018-06-22T07:20:56.367Z,4.33
2018-06-22T07:23:26.833Z,4.77
2018-06-22T07:25:56.136Z,3.40
2018-06-22T07:28:25.494Z,3.20
2018-06-22T07:30:54.783Z,3.03
2018-06-22T07:33:24.121Z,3.13
2018-06-22T07:35:53.718Z,3.43
2018-06-22T07:38:22.984Z,4.40
2018-06-22T07:40:52.361Z,3.03
2018-06-22T07:43:21.700Z,2.87
2018-06-22T07:45:51.173Z,2.50
2018-06-22T07:48:20.512Z,2.47
2018-06-22T07:50:49.801Z,2.73
2018-06-22T07:53:19.229Z,3.20
2018-06-22T07:55:48.596Z,3.30
2018-06-22T07:58:17.955Z,3.43
2018-06-22T08:00:47.341Z,2.77
2018-06-22T08:03:16.718Z,2.77
2018-06-22T08:05:46.339Z,3.40
2018-06-22T08:08:15.653Z,2.80
2018-06-22T08:10:45.164Z,2.80
2018-06-22T08:13:14.483Z,2.90
2018-06-22T08:15:43.907Z,3.03
2018-06-22T08:18:13.254Z,2.97
2018-06-22T08:20:42.625Z,2.60
2018-06-22T08:23:12.020Z,3.20
2018-06-22T08:25:41.381Z,2.97
2018-06-22T08:28:10.665Z,3.40
2018-06-22T08:30:40.070Z,3.93
2018-06-22T08:33:09.531Z,4.03
2018-06-22T08:35:38.871Z,3.50
2018-06-22T08:38:08.325Z,2.60
2018-06-22T08:40:37.632Z,2.90
2018-06-22T08:43:06.969Z,2.47
2018-06-22T08:45:36.278Z,3.00
2018-06-22T08:48:05.773Z,3.17
2018-06-22T08:50:35.051Z,3.80
2018-06-22T08:53:04.416Z,2.40
2018-06-22T08:55:33.748Z,3.07
2018-06-22T08:58:03.105Z,3.60
2018-06-22T09:00:32.415Z,4.23
2018-06-22T09:03:01.838Z,2.87
2018-06-22T09:05:31.131Z,3.27
2018-06-22T09:08:00.428Z,2.60
2018-06-22T09:10:29.774Z,2.73
2018-06-22T09:12:59.206Z,1.90
2018-06-22T09:15:28.674Z,2.80
2018-06-22T09:17:57.918Z,2.43
2018-06-22T09:20:27.385Z,3.57
2018-06-22T09:22:56.689Z,3.10
2018-06-22T09:25:26.437Z,4.77
2018-06-22T09:27:55.820Z,4.20
2018-06-22T09:30:25.158Z,3.47
2018-06-22T09:32:54.454Z,3.27
2018-06-22T09:35:23.955Z,2.90
2018-06-22T09:37:53.387Z,3.50
2018-06-22T09:40:23.828Z,4.63
2018-06-22T09:42:53.224Z,6.87
2018-06-22T09:45:22.614Z,5.10
2018-06-22T09:47:52.073Z,5.90
2018-06-22T09:50:21.478Z,4.57
2018-06-22T09:52:50.828Z,4.90
2018-06-22T09:55:20.181Z,5.10
2018-06-22T09:57:49.533Z,5.17
2018-06-22T10:00:19.513Z,6.60
2018-06-22T10:02:49.312Z,5.97
2018-06-22T10:05:18.865Z,5.30
2018-06-22T10:07:48.184Z,5.57
2018-06-22T10:10:17.591Z,4.60
2018-06-22T10:12:46.917Z,5.43
2018-06-22T10:15:16.442Z,5.07
2018-06-22T10:17:45.717Z,5.37
2018-06-22T10:20:15.217Z,5.63
2018-06-22T10:22:44.602Z,6.17
2018-06-22T10:25:13.938Z,5.60
2018-06-22T10:27:43.306Z,8.17
2018-06-22T10:30:12.709Z,5.13
2018-06-22T10:32:42.138Z,4.63
2018-06-22T10:35:11.618Z,4.83
2018-06-22T10:37:41.224Z,3.43
2018-06-22T10:40:10.694Z,4.37
2018-06-22T10:42:40.010Z,2.70
2018-06-22T10:45:09.461Z,2.80
2018-06-22T10:47:38.826Z,3.73
2018-06-22T10:50:08.236Z,3.20
2018-06-22T10:52:37.607Z,3.30
2018-06-22T10:55:06.883Z,2.97
2018-06-22T10:57:36.246Z,3.30
2018-06-22T11:00:06.314Z,3.20
2018-06-22T11:02:35.697Z,3.80
2018-06-22T11:05:05.069Z,4.13
2018-06-22T11:07:34.530Z,3.20
2018-06-22T11:10:03.888Z,2.97
2018-06-22T11:12:33.641Z,2.30
2018-06-22T11:15:03.046Z,2.80
2018-06-22T11:17:32.609Z,3.23
2018-06-22T11:20:01.994Z,3.43
2018-06-22T11:22:31.516Z,2.87
2018-06-22T11:25:00.985Z,2.77
2018-06-22T11:27:30.338Z,2.57
2018-06-22T11:29:59.634Z,2.60
2018-06-22T11:32:29.084Z,2.20
2018-06-22T11:34:58.452Z,2.20
2018-06-22T11:37:27.866Z,2.20
2018-06-22T11:39:57.154Z,1.93
2018-06-22T11:42:26.493Z,2.50
2018-06-22T11:44:55.794Z,2.07
2018-06-22T11:47:25.242Z,3.00
2018-06-22T11:49:54.674Z,1.80
2018-06-22T11:52:23.943Z,1.50
2018-06-22T11:54:53.226Z,1.67
2018-06-22T11:57:22.645Z,1.30
2018-06-22T11:59:52.012Z,1.40
2018-06-22T12:02:21.417Z,1.47
2018-06-22T12:04:50.847Z,1.60
2018-06-22T12:07:20.246Z,1.67
2018-06-22T12:09:49.745Z,2.47
2018-06-22T12:12:19.072Z,2.53
2018-06-22T12:14:48.757Z,2.27
2018-06-22T12:17:18.113Z,2.97
2018-06-22T12:19:47.594Z,2.23
2018-06-22T12:22:16.950Z,1.97
2018-06-22T12:24:46.317Z,1.90
2018-06-22T12:27:15.689Z,2.20
2018-06-22T12:29:45.064Z,2.30
2018-06-22T12:32:14.402Z,2.30
2018-06-22T12:34:43.837Z,2.13
2018-06-22T12:37:13.255Z,2.33
2018-06-22T12:39:42.611Z,2.33
2018-06-22T12:42:12.043Z,1.70
2018-06-22T12:44:41.317Z,2.20
2018-06-22T12:47:10.579Z,1.40
2018-06-22T12:49:40.191Z,1.40
2018-06-22T12:52:09.446Z,1.20
2018-06-22T12:54:38.750Z,2.40
2018-06-22T12:57:08.169Z,1.90
2018-06-22T12:59:37.623Z,2.40
2018-06-22T13:02:07.416Z,2.40
2018-06-22T13:04:36.712Z,2.10
2018-06-22T13:07:06.349Z,2.50
2018-06-22T13:09:35.708Z,1.50
2018-06-22T13:12:05.419Z,1.60
2018-06-22T13:14:34.727Z,2.90
2018-06-22T13:17:04.033Z,1.37
2018-06-22T13:19:33.411Z,2.00
2018-06-22T13:22:02.915Z,2.00
2018-06-22T13:24:32.158Z,2.10
2018-06-22T13:27:01.397Z,1.77
2018-06-22T13:29:30.657Z,1.90
2018-06-22T13:32:00.103Z,2.00
2018-06-22T13:34:29.367Z,2.07
2018-06-22T13:36:58.698Z,2.30
2018-06-22T13:39:27.987Z,2.60
2018-06-22T13:41:57.379Z,3.70
2018-06-22T13:44:26.641Z,2.93
2018-06-22T13:46:55.912Z,2.73
2018-06-22T13:49:25.381Z,3.00
2018-06-22T13:51:54.658Z,1.90
2018-06-22T13:54:23.951Z,1.90
2018-06-22T13:56:53.347Z,1.20
2018-06-22T13:59:22.658Z,2.17
2018-06-22T14:01:52.094Z,1.30
2018-06-22T14:04:26.709Z,1.70
2018-06-22T14:06:56.796Z,1.50
2018-06-22T14:09:26.430Z,1.40
2018-06-22T14:11:55.624Z,1.67
2018-06-22T14:14:24.888Z,1.60
2018-06-22T14:16:54.467Z,1.70
2018-06-22T14:19:23.840Z,1.67
2018-06-22T14:21:53.094Z,1.23
2018-06-22T14:24:22.585Z,1.70
2018-06-22T14:26:51.963Z,1.93
2018-06-22T14:29:21.261Z,1.70
2018-06-22T14:31:50.689Z,1.60
2018-06-22T14:34:20.038Z,1.60
2018-06-22T14:36:49.358Z,1.73
2018-06-22T14:39:18.604Z,1.80
2018-06-22T14:41:48.214Z,2.53
2018-06-22T14:44:17.613Z,2.37
2018-06-22T14:46:47.002Z,2.20
2018-06-22T14:49:16.444Z,2.13
2018-06-22T14:51:45.854Z,2.37
2018-06-22T14:54:20.491Z,1.83
2018-06-22T14:56:55.256Z,2.03
2018-06-22T14:59:29.921Z,2.87
2018-06-22T15:02:04.461Z,2.80
2018-06-22T15:04:39.153Z,2.37
2018-06-22T15:07:13.662Z,3.10
2018-06-22T15:09:43.055Z,2.60
2018-06-22T15:12:12.483Z,2.33
2018-06-22T15:14:41.801Z,3.23
2018-06-22T15:17:12.657Z,3.07
2018-06-22T15:19:43.727Z,2.20
2018-06-22T15:22:13.867Z,2.30
2018-06-22T15:24:43.301Z,2.63
2018-06-22T15:27:12.703Z,2.00
2018-06-22T15:29:42.094Z,2.53
2018-06-22T15:32:11.501Z,3.53
2018-06-22T15:34:46.141Z,2.50
2018-06-22T15:37:20.665Z,2.40
2018-06-22T15:42:02.321Z,2.17
2018-06-22T15:44:36.964Z,2.80
2018-06-22T15:47:11.527Z,2.57
2018-06-22T15:49:46.082Z,2.03
2018-06-22T15:52:20.848Z,2.97
2018-06-22T15:54:55.591Z,3.27
2018-06-22T15:57:26.082Z,2.90
2018-06-22T15:59:55.457Z,3.47
2018-06-22T16:02:30.246Z,2.77
2018-06-22T16:04:59.645Z,3.03
2018-06-22T16:07:29.253Z,2.93
2018-06-22T16:10:02.422Z,3.00
2018-06-22T16:12:40.932Z,2.70
2018-06-22T16:15:17.869Z,2.73
2018-06-22T16:17:53.952Z,2.60
2018-06-22T16:20:28.642Z,2.77
2018-06-22T16:23:03.265Z,2.23
2018-06-22T16:25:37.963Z,2.30
2018-06-22T16:28:07.288Z,2.33
2018-06-22T16:30:36.810Z,2.80
2018-06-22T16:33:06.169Z,2.70
2018-06-22T16:35:35.538Z,3.30
2018-06-22T16:38:05.051Z,2.80
2018-06-22T16:40:34.376Z,2.00
2018-06-22T16:43:03.678Z,2.27
2018-06-22T16:45:33.125Z,2.07
2018-06-22T16:48:02.434Z,1.57
2018-06-22T16:50:31.821Z,1.90
2018-06-22T16:53:01.120Z,1.40
2018-06-22T16:55:30.507Z,1.83
2018-06-22T16:57:59.805Z,1.53
2018-06-22T17:00:29.210Z,1.47
2018-06-22T17:02:58.629Z,1.37
2018-06-22T17:05:28.151Z,1.30
2018-06-22T17:08:02.649Z,1.33
2018-06-22T17:10:37.359Z,1.77
2018-06-22T17:13:12.100Z,1.60
2018-06-22T17:15:46.607Z,1.80
2018-06-22T17:18:21.325Z,1.90
2018-06-22T17:20:50.833Z,1.87
2018-06-22T17:23:20.288Z,1.77
2018-06-22T17:25:49.686Z,1.93
2018-06-22T17:28:19.053Z,1.50
2018-06-22T17:30:48.429Z,3.30
2018-06-22T17:33:17.888Z,1.60
2018-06-22T17:35:47.299Z,1.40
2018-06-22T17:38:16.624Z,2.10
2018-06-22T17:40:46.190Z,1.90
2018-06-22T17:43:15.533Z,1.53
2018-06-22T17:45:44.914Z,1.60
2018-06-22T17:48:14.518Z,2.90
2018-06-22T17:50:44.035Z,1.37
2018-06-22T17:53:13.382Z,1.67
2018-06-22T17:55:42.780Z,1.87
2018-06-22T17:58:12.200Z,1.50
2018-06-22T18:00:46.796Z,1.90
2018-06-22T18:03:21.385Z,2.20
2018-06-22T18:05:55.896Z,1.93
2018-06-22T18:08:30.565Z,1.90
2018-06-22T18:11:05.215Z,2.13
2018-06-22T18:13:34.687Z,1.50
2018-06-22T18:16:04.089Z,2.20
2018-06-22T18:18:33.373Z,1.90
2018-06-22T18:21:02.898Z,2.90
2018-06-22T18:23:32.253Z,1.80
2018-06-22T18:26:01.577Z,1.87
2018-06-22T18:28:31.305Z,3.20
2018-06-22T18:31:00.544Z,2.73
2018-06-22T18:33:29.819Z,2.10
2018-06-22T18:35:59.182Z,2.17
2018-06-22T18:38:28.656Z,2.57
2018-06-22T18:40:58.096Z,2.10
2018-06-22T18:43:32.943Z,2.57
2018-06-22T18:46:02.341Z,2.00
2018-06-22T18:48:31.665Z,3.13
2018-06-22T18:51:01.146Z,1.87
2018-06-22T18:53:35.850Z,2.20
2018-06-22T18:56:10.519Z,3.07
2018-06-22T18:58:45.143Z,2.40
2018-06-22T19:01:19.739Z,2.30
2018-06-22T19:03:49.846Z,3.00
2018-06-22T19:06:19.391Z,2.80
2018-06-22T19:08:49.922Z,2.90
2018-06-22T19:11:19.318Z,2.37
2018-06-22T19:13:48.835Z,2.80
2018-06-22T19:16:18.237Z,3.43
2018-06-22T19:18:47.603Z,2.93
2018-06-22T19:21:17.025Z,3.33
2018-06-22T19:23:46.428Z,3.33
2018-06-22T19:26:15.782Z,2.50
2018-06-22T19:28:45.055Z,3.10
2018-06-22T19:31:14.417Z,3.27
2018-06-22T19:33:43.774Z,3.03
2018-06-22T19:36:14.375Z,3.37
2018-06-22T19:38:43.706Z,3.90
2018-06-22T19:41:13.041Z,3.57
2018-06-22T19:45:50.665Z,3.20
2018-06-22T19:48:26.842Z,3.70
2018-06-22T19:51:01.401Z,3.03
2018-06-22T19:53:35.972Z,4.40
2018-06-22T19:56:05.363Z,3.70
2018-06-22T19:58:34.633Z,4.30
2018-06-22T20:01:04.111Z,3.93
2018-06-22T20:03:33.394Z,3.90
2018-06-22T20:06:02.867Z,3.53
2018-06-22T20:08:32.138Z,3.20
2018-06-22T20:11:01.407Z,2.77
2018-06-22T20:13:30.933Z,3.73
2018-06-22T20:16:00.237Z,2.77
2018-06-22T20:18:29.521Z,2.70
2018-06-22T20:20:59.042Z,3.30
2018-06-22T20:23:28.502Z,3.27
2018-06-22T20:25:57.775Z,2.53
2018-06-22T20:28:27.625Z,2.90
2018-06-22T20:30:56.871Z,2.73
2018-06-22T20:33:26.252Z,2.70
2018-06-22T20:36:00.924Z,2.70
2018-06-22T20:38:35.620Z,3.47
2018-06-22T20:41:10.224Z,2.57
2018-06-22T20:43:45.228Z,3.97
2018-06-22T20:46:18.889Z,2.80
2018-06-22T20:48:53.642Z,2.70
2018-06-22T20:51:23.159Z,3.10
2018-06-22T20:53:52.518Z,2.47
2018-06-22T20:56:22.216Z,2.60
2018-06-22T20:58:51.638Z,3.20
2018-06-22T21:01:21.025Z,3.00
2018-06-22T21:03:50.727Z,3.90
2018-06-22T21:06:20.244Z,2.53
2018-06-22T21:08:49.626Z,3.23
2018-06-22T21:11:19.062Z,3.20
2018-06-22T21:13:48.932Z,3.40
2018-06-22T21:16:18.566Z,3.70
2018-06-22T21:18:48.043Z,3.47
2018-06-22T21:21:22.845Z,3.10
2018-06-22T21:23:52.113Z,2.50
2018-06-22T21:26:21.793Z,2.73
2018-06-22T21:28:56.526Z,4.20
2018-06-22T21:31:31.202Z,3.47
2018-06-22T21:34:06.144Z,3.00
2018-06-22T21:36:40.740Z,4.07
2018-06-22T21:39:11.005Z,3.53
2018-06-22T21:41:40.450Z,3.93
2018-06-22T21:44:09.877Z,3.37
2018-06-22T21:46:39.294Z,3.77
2018-06-22T21:49:08.916Z,3.10
2018-06-22T21:51:39.294Z,3.50
2018-06-22T21:54:08.792Z,3.67
2018-06-22T21:56:38.132Z,3.67
2018-06-22T21:59:07.474Z,3.30
2018-06-22T22:01:37.127Z,3.70
2018-06-22T22:04:06.571Z,4.17
2018-06-22T22:06:36.962Z,3.57
2018-06-22T22:09:08.221Z,3.50
2018-06-22T22:11:42.919Z,5.03
2018-06-22T22:14:12.422Z,3.60
2018-06-22T22:16:41.807Z,5.23
2018-06-22T22:19:11.307Z,3.30
2018-06-22T22:21:40.708Z,3.27
2018-06-22T22:24:10.084Z,3.17
2018-06-22T22:26:39.736Z,3.20
2018-06-22T22:29:09.936Z,3.83
2018-06-22T22:31:39.560Z,3.97
2018-06-22T22:34:08.953Z,6.10
2018-06-22T22:36:38.276Z,4.10
2018-06-22T22:39:08.041Z,3.67
2018-06-22T22:41:37.615Z,4.97
2018-06-22T22:44:07.321Z,3.40
2018-06-22T22:46:36.753Z,3.40
2018-06-22T22:49:06.225Z,3.37
2018-06-22T22:51:35.648Z,4.60
2018-06-22T22:54:05.327Z,3.87
2018-06-22T22:56:34.635Z,4.13
2018-06-22T22:59:04.144Z,3.93
2018-06-22T23:01:33.503Z,3.97
2018-06-22T23:04:03.035Z,4.27
2018-06-22T23:06:32.460Z,3.90
2018-06-22T23:09:01.920Z,4.10
2018-06-22T23:11:31.508Z,4.47
2018-06-22T23:14:00.878Z,4.50
2018-06-22T23:16:30.417Z,4.27
2018-06-22T23:19:00.109Z,4.60
2018-06-22T23:21:29.625Z,4.20
2018-06-22T23:23:59.022Z,5.40
2018-06-22T23:26:28.517Z,5.17
2018-06-22T23:28:57.802Z,4.40
2018-06-22T23:31:27.718Z,4.97
2018-06-22T23:33:57.081Z,4.33
2018-06-22T23:36:26.486Z,4.30
2018-06-22T23:38:55.993Z,5.20
2018-06-22T23:41:25.339Z,5.07
2018-06-22T23:43:54.884Z,4.80
2018-06-22T23:46:24.217Z,4.70
2018-06-22T23:48:53.858Z,5.60
2018-06-22T23:51:23.165Z,5.53
2018-06-22T23:53:52.693Z,4.30
2018-06-22T23:56:22.082Z,4.43
2018-06-22T23:58:51.405Z,4.93
